createdAt,value
2022-11-06T00:03:25.714Z,100412.00
2022-11-06T00:09:27.789Z,100410.00
2022-11-06T00:15:29.783Z,100416.00
2022-11-06T00:21:32.029Z,100413.00
2022-11-06T00:27:37.568Z,100405.00
2022-11-06T00:33:40.218Z,100403.00
2022-11-06T00:39:42.147Z,100400.00
2022-11-06T00:45:44.185Z,100399.00
2022-11-06T00:51:46.487Z,100388.00
2022-11-06T00:57:48.680Z,100385.00
2022-11-06T01:03:56.558Z,100389.00
2022-11-06T01:09:58.753Z,100386.00
2022-11-06T01:16:00.898Z,100386.00
2022-11-06T01:22:03.093Z,100388.00
2022-11-06T01:28:05.664Z,100393.00
2022-11-06T01:34:08.015Z,100398.00
2022-11-06T01:40:10.579Z,100409.00
2022-11-06T01:46:13.001Z,100395.00
2022-11-06T01:52:16.176Z,100403.00
2022-11-06T01:58:21.914Z,100404.00
2022-11-06T02:04:27.354Z,100400.00
2022-11-06T02:10:30.023Z,100401.00
2022-11-06T02:16:46.279Z,100404.00
2022-11-06T02:23:31.966Z,100423.00
2022-11-06T02:29:37.052Z,100411.00
2022-11-06T02:36:02.040Z,100429.00
2022-11-06T02:42:06.229Z,100431.00
2022-11-06T02:48:11.114Z,100438.00
2022-11-06T02:54:14.640Z,100437.00
2022-11-06T03:00:17.635Z,100446.00
2022-11-06T03:06:41.474Z,100454.00
2022-11-06T03:12:58.850Z,100449.00
2022-11-06T03:19:08.120Z,100453.00
2022-11-06T03:25:28.791Z,100470.00
2022-11-06T03:31:36.921Z,100469.00
2022-11-06T03:38:08.580Z,100449.00
2022-11-06T03:44:15.050Z,100455.00
2022-11-06T03:50:38.212Z,100458.00
2022-11-06T03:57:02.945Z,100463.00
2022-11-06T04:03:13.965Z,100466.00
2022-11-06T04:09:37.102Z,100458.00
2022-11-06T04:15:49.340Z,100463.00
2022-11-06T04:21:57.523Z,100468.00
2022-11-06T04:28:27.006Z,100456.00
2022-11-06T04:34:56.012Z,100463.00
2022-11-06T04:41:26.956Z,100465.00
2022-11-06T04:47:29.747Z,100464.00
2022-11-06T04:53:33.460Z,100470.00
2022-11-06T04:59:37.331Z,100476.00
2022-11-06T05:05:39.510Z,100471.00
2022-11-06T05:11:41.376Z,100482.00
2022-11-06T05:17:43.498Z,100483.00
2022-11-06T05:23:45.744Z,100488.00
2022-11-06T05:29:47.821Z,100496.00
2022-11-06T05:35:50.529Z,100515.00
2022-11-06T05:41:52.715Z,100525.00
2022-11-06T05:47:54.653Z,100532.00
2022-11-06T05:53:56.753Z,100535.00
2022-11-06T05:59:59.415Z,100535.00
2022-11-06T06:06:01.329Z,100543.00
2022-11-06T06:12:03.415Z,100567.00
2022-11-06T06:18:06.328Z,100566.00
2022-11-06T06:24:08.423Z,100573.00
2022-11-06T06:30:11.244Z,100579.00
2022-11-06T06:36:13.100Z,100592.00
2022-11-06T06:42:15.393Z,100579.00
2022-11-06T06:48:17.649Z,100586.00
2022-11-06T06:54:19.878Z,100604.00
2022-11-06T07:00:21.915Z,100594.00
2022-11-06T07:06:24.826Z,100599.00
2022-11-06T07:12:27.767Z,100603.00
2022-11-06T07:18:29.864Z,100608.00
2022-11-06T07:24:31.909Z,100607.00
2022-11-06T07:30:35.909Z,100614.00
2022-11-06T07:36:38.066Z,100598.00
2022-11-06T07:42:43.526Z,100606.00
2022-11-06T07:48:50.529Z,100613.00
2022-11-06T07:54:52.625Z,100612.00
2022-11-06T08:00:57.579Z,100615.00
2022-11-06T08:06:59.560Z,100629.00
2022-11-06T08:13:01.748Z,100634.00
2022-11-06T08:19:03.805Z,100628.00
2022-11-06T08:25:06.986Z,100635.00
2022-11-06T08:31:09.705Z,100650.00
2022-11-06T08:37:11.996Z,100651.00
2022-11-06T08:43:14.441Z,100653.00
2022-11-06T08:49:16.618Z,100657.00
2022-11-06T08:55:18.821Z,100653.00
2022-11-06T09:01:21.123Z,100658.00
2022-11-06T09:07:23.413Z,100676.00
2022-11-06T09:13:25.471Z,100665.00
2022-11-06T09:19:27.622Z,100672.00
2022-11-06T09:25:30.278Z,100659.00
2022-11-06T09:31:32.812Z,100656.00
2022-11-06T09:37:34.822Z,100657.00
2022-11-06T09:44:06.197Z,100652.00
2022-11-06T09:50:16.987Z,100652.00
2022-11-06T09:56:22.004Z,100641.00
2022-11-06T10:02:34.088Z,100641.00
2022-11-06T10:08:36.556Z,100649.00
2022-11-06T10:14:52.800Z,100648.00
2022-11-06T10:21:03.877Z,100651.00
2022-11-06T10:27:18.950Z,100642.00
2022-11-06T10:33:39.119Z,100640.00
2022-11-06T10:39:41.591Z,100632.00
2022-11-06T10:45:45.798Z,100625.00
2022-11-06T10:51:57.864Z,100624.00
2022-11-06T10:58:02.422Z,100625.00
2022-11-06T11:04:04.638Z,100612.00
2022-11-06T11:10:26.752Z,100602.00
2022-11-06T11:16:32.426Z,100603.00
2022-11-06T11:22:34.733Z,100604.00
2022-11-06T11:28:37.996Z,100573.00
2022-11-06T11:34:51.383Z,100576.00
2022-11-06T11:41:12.102Z,100575.00
2022-11-06T11:47:23.928Z,100559.00
2022-11-06T11:53:26.000Z,100556.00
2022-11-06T11:59:38.685Z,100595.00
2022-11-06T12:05:41.481Z,100599.00
2022-11-06T12:11:43.988Z,100602.00
2022-11-06T12:18:03.544Z,100594.00
2022-11-06T12:24:39.582Z,100594.00
2022-11-06T12:30:44.380Z,100598.00
2022-11-06T12:37:14.099Z,100595.00
2022-11-06T12:43:35.227Z,100595.00
2022-11-06T12:49:43.281Z,100600.00
2022-11-06T12:56:15.418Z,100602.00
2022-11-06T13:02:43.586Z,100607.00
2022-11-06T13:08:52.006Z,100605.00
2022-11-06T13:14:53.973Z,100605.00
2022-11-06T13:21:20.273Z,100614.00
2022-11-06T13:27:31.682Z,100616.00
2022-11-06T13:33:56.961Z,100625.00
2022-11-06T13:40:10.548Z,100639.00
2022-11-06T13:46:41.205Z,100643.00
2022-11-06T13:53:07.862Z,100641.00
2022-11-06T13:59:47.038Z,100655.00
2022-11-06T14:06:26.733Z,100660.00
2022-11-06T14:12:28.940Z,100655.00
2022-11-06T14:18:32.468Z,100662.00
2022-11-06T14:24:42.002Z,100664.00
2022-11-06T14:31:11.129Z,100658.00
2022-11-06T14:37:18.848Z,100665.00
2022-11-06T14:43:28.014Z,100672.00
2022-11-06T14:49:44.179Z,100666.00
2022-11-06T14:55:59.467Z,100680.00
2022-11-06T15:02:24.947Z,100675.00
2022-11-06T15:08:45.892Z,100666.00
2022-11-06T15:14:48.350Z,100679.00
2022-11-06T15:20:53.771Z,100682.00
2022-11-06T15:26:59.737Z,100687.00
2022-11-06T15:33:04.692Z,100680.00
2022-11-06T15:39:34.905Z,100686.00
2022-11-06T15:45:37.636Z,100695.00
2022-11-06T15:51:40.524Z,100713.00
2022-11-06T15:57:46.036Z,100718.00
2022-11-06T16:03:52.361Z,100730.00
2022-11-06T16:09:54.544Z,100735.00
2022-11-06T16:16:03.047Z,100743.00
2022-11-06T16:22:29.775Z,100749.00
2022-11-06T16:28:33.514Z,100756.00
2022-11-06T16:34:40.131Z,100763.00
2022-11-06T16:40:45.044Z,100764.00
2022-11-06T16:47:05.296Z,100770.00
2022-11-06T16:53:10.350Z,100779.00
2022-11-06T16:59:16.841Z,100797.00
2022-11-06T17:05:24.572Z,100795.00
2022-11-06T17:11:26.739Z,100803.00
2022-11-06T17:17:28.757Z,100816.00
2022-11-06T17:23:31.871Z,100822.00
2022-11-06T17:29:36.781Z,100813.00
2022-11-06T17:35:39.089Z,100835.00
2022-11-06T17:41:41.568Z,100832.00
2022-11-06T17:47:43.807Z,100832.00
2022-11-06T17:53:46.011Z,100825.00
2022-11-06T17:59:48.414Z,100851.00
2022-11-06T18:05:50.740Z,100852.00
2022-11-06T18:11:54.737Z,100859.00
2022-11-06T18:17:56.993Z,100869.00
2022-11-06T18:24:00.097Z,100862.00
2022-11-06T18:30:02.574Z,100867.00
2022-11-06T18:36:06.292Z,100869.00
2022-11-06T18:42:08.358Z,100868.00
2022-11-06T18:48:10.834Z,100874.00
2022-11-06T18:54:13.149Z,100881.00
2022-11-06T19:00:15.715Z,100887.00
2022-11-06T19:06:19.032Z,100900.00
2022-11-06T19:12:21.287Z,100891.00
2022-11-06T19:18:23.670Z,100890.00
2022-11-06T19:24:25.890Z,100893.00
2022-11-06T19:30:28.757Z,100906.00
2022-11-06T19:36:32.190Z,100908.00
2022-11-06T19:42:34.665Z,100903.00
2022-11-06T19:48:37.031Z,100907.00
2022-11-06T19:54:39.418Z,100931.00
2022-11-06T20:00:42.136Z,100929.00
2022-11-06T20:06:45.610Z,100938.00
2022-11-06T20:12:48.115Z,100928.00
2022-11-06T20:18:52.196Z,100933.00
2022-11-06T20:24:54.501Z,100942.00
2022-11-06T20:30:56.792Z,100947.00
2022-11-06T20:36:59.833Z,100948.00
2022-11-06T20:43:02.442Z,100955.00
2022-11-06T20:49:04.566Z,100943.00
2022-11-06T20:55:07.078Z,100955.00
2022-11-06T21:01:17.499Z,100953.00
2022-11-06T21:07:19.858Z,100957.00
2022-11-06T21:13:21.983Z,100959.00
2022-11-06T21:19:24.515Z,100953.00
2022-11-06T21:25:26.660Z,100962.00
2022-11-06T21:31:31.122Z,100962.00
2022-11-06T21:37:33.511Z,100969.00
2022-11-06T21:43:35.940Z,100970.00
2022-11-06T21:49:38.046Z,100976.00
2022-11-06T21:55:59.029Z,100980.00
2022-11-06T22:02:01.381Z,100969.00
2022-11-06T22:08:03.539Z,100982.00
2022-11-06T22:14:12.124Z,100988.00
2022-11-06T22:20:14.170Z,100987.00
2022-11-06T22:26:22.442Z,100987.00
2022-11-06T22:32:24.770Z,100991.00
2022-11-06T22:38:27.232Z,100989.00
2022-11-06T22:44:33.302Z,100983.00
2022-11-06T22:50:35.889Z,100985.00
2022-11-06T22:56:38.298Z,100992.00
2022-11-06T23:02:40.688Z,100984.00
2022-11-06T23:08:46.947Z,100997.00
2022-11-06T23:14:49.625Z,100993.00
2022-11-06T23:20:51.801Z,100993.00
2022-11-06T23:26:53.984Z,100999.00
2022-11-06T23:32:56.402Z,101010.00
2022-11-06T23:38:58.760Z,100999.00
2022-11-06T23:45:19.217Z,101008.00
2022-11-06T23:51:21.845Z,101023.00
2022-11-06T23:57:24.040Z,101014.00
